sensor_id;sensor_type;location;lat;lon;timestamp;noise_LAeq;noise_LA_min;noise_LA_max;noise_LA01;noise_LA95
46393;Laerm;32099;53.588;10.176;2022-07-12T00:00:42;35.57;31.14;56.30;;
46393;Laerm;32099;53.588;10.176;2022-07-12T00:03:08;32.60;31.01;35.40;;
46393;Laerm;32099;53.588;10.176;2022-07-12T00:05:33;33.01;31.22;36.56;;
46393;Laerm;32099;53.588;10.176;2022-07-12T00:07:58;32.59;31.12;38.54;;
46393;Laerm;32099;53.588;10.176;2022-07-12T00:10:24;33.11;31.07;40.98;;
46393;Laerm;32099;53.588;10.176;2022-07-12T00:12:49;35.77;31.32;42.70;;
46393;Laerm;32099;53.588;10.176;2022-07-12T00:15:14;33.76;31.43;41.44;;
46393;Laerm;32099;53.588;10.176;2022-07-12T00:17:41;32.73;30.97;39.15;;
46393;Laerm;32099;53.588;10.176;2022-07-12T00:20:07;32.79;30.99;36.09;;
46393;Laerm;32099;53.588;10.176;2022-07-12T00:22:32;32.99;31.33;35.46;;
46393;Laerm;32099;53.588;10.176;2022-07-12T00:24:58;33.50;31.46;42.92;;
46393;Laerm;32099;53.588;10.176;2022-07-12T00:27:23;33.14;31.16;44.20;;
46393;Laerm;32099;53.588;10.176;2022-07-12T00:29:48;32.78;31.11;35.59;;
46393;Laerm;32099;53.588;10.176;2022-07-12T00:32:14;32.75;31.37;35.72;;
46393;Laerm;32099;53.588;10.176;2022-07-12T00:34:39;33.53;31.41;39.76;;
46393;Laerm;32099;53.588;10.176;2022-07-12T00:37:04;34.50;31.42;49.22;;
46393;Laerm;32099;53.588;10.176;2022-07-12T00:39:29;33.60;31.69;43.21;;
46393;Laerm;32099;53.588;10.176;2022-07-12T00:41:55;33.12;31.23;37.14;;
46393;Laerm;32099;53.588;10.176;2022-07-12T00:44:20;34.41;31.47;50.74;;
46393;Laerm;32099;53.588;10.176;2022-07-12T00:46:46;34.16;31.31;47.47;;
46393;Laerm;32099;53.588;10.176;2022-07-12T00:49:12;32.92;31.26;37.24;;
46393;Laerm;32099;53.588;10.176;2022-07-12T00:51:42;33.11;31.22;36.66;;
46393;Laerm;32099;53.588;10.176;2022-07-12T00:54:07;33.48;31.53;40.62;;
46393;Laerm;32099;53.588;10.176;2022-07-12T00:56:33;32.78;31.30;35.14;;
46393;Laerm;32099;53.588;10.176;2022-07-12T00:58:58;32.73;31.17;48.06;;
46393;Laerm;32099;53.588;10.176;2022-07-12T01:01:23;32.79;30.89;34.92;;
46393;Laerm;32099;53.588;10.176;2022-07-12T01:03:49;33.49;31.12;44.93;;
46393;Laerm;32099;53.588;10.176;2022-07-12T01:06:16;33.17;31.50;35.44;;
46393;Laerm;32099;53.588;10.176;2022-07-12T01:08:41;33.04;31.49;35.81;;
46393;Laerm;32099;53.588;10.176;2022-07-12T01:11:07;33.00;31.39;36.13;;
46393;Laerm;32099;53.588;10.176;2022-07-12T01:13:34;32.89;31.30;39.07;;
46393;Laerm;32099;53.588;10.176;2022-07-12T01:16:00;33.35;31.38;39.75;;
46393;Laerm;32099;53.588;10.176;2022-07-12T01:18:27;33.10;31.34;35.99;;
46393;Laerm;32099;53.588;10.176;2022-07-12T01:20:53;32.66;31.08;34.64;;
46393;Laerm;32099;53.588;10.176;2022-07-12T01:23:18;32.91;31.36;41.71;;
46393;Laerm;32099;53.588;10.176;2022-07-12T01:25:44;32.76;31.37;37.12;;
46393;Laerm;32099;53.588;10.176;2022-07-12T01:28:10;32.79;31.31;34.54;;
46393;Laerm;32099;53.588;10.176;2022-07-12T01:30:35;32.86;31.25;44.16;;
46393;Laerm;32099;53.588;10.176;2022-07-12T01:33:00;33.00;31.40;39.20;;
46393;Laerm;32099;53.588;10.176;2022-07-12T01:35:26;32.81;31.26;34.62;;
46393;Laerm;32099;53.588;10.176;2022-07-12T01:37:52;44.24;31.36;63.89;;
46393;Laerm;32099;53.588;10.176;2022-07-12T01:40:18;32.83;31.34;35.11;;
46393;Laerm;32099;53.588;10.176;2022-07-12T01:42:44;35.15;31.32;51.57;;
46393;Laerm;32099;53.588;10.176;2022-07-12T01:45:09;33.60;31.46;42.12;;
46393;Laerm;32099;53.588;10.176;2022-07-12T01:47:35;33.22;31.43;42.72;;
46393;Laerm;32099;53.588;10.176;2022-07-12T01:50:07;35.32;31.92;47.13;;
46393;Laerm;32099;53.588;10.176;2022-07-12T01:52:35;33.82;31.86;46.27;;
46393;Laerm;32099;53.588;10.176;2022-07-12T01:55:01;37.51;31.79;54.68;;
46393;Laerm;32099;53.588;10.176;2022-07-12T01:57:26;40.17;32.35;55.42;;
46393;Laerm;32099;53.588;10.176;2022-07-12T01:59:52;41.26;32.32;57.10;;
46393;Laerm;32099;53.588;10.176;2022-07-12T02:02:17;45.27;32.46;59.96;;
46393;Laerm;32099;53.588;10.176;2022-07-12T02:04:42;45.89;32.19;58.78;;
46393;Laerm;32099;53.588;10.176;2022-07-12T02:07:08;44.11;32.89;59.00;;
46393;Laerm;32099;53.588;10.176;2022-07-12T02:09:33;42.45;33.10;56.50;;
46393;Laerm;32099;53.588;10.176;2022-07-12T02:11:59;45.28;32.59;60.00;;
46393;Laerm;32099;53.588;10.176;2022-07-12T02:14:24;43.68;32.65;61.03;;
46393;Laerm;32099;53.588;10.176;2022-07-12T02:16:50;47.20;33.04;65.99;;
46393;Laerm;32099;53.588;10.176;2022-07-12T02:19:15;46.73;33.08;65.10;;
46393;Laerm;32099;53.588;10.176;2022-07-12T02:21:41;42.72;33.35;59.41;;
46393;Laerm;32099;53.588;10.176;2022-07-12T02:24:07;38.66;32.91;50.65;;
46393;Laerm;32099;53.588;10.176;2022-07-12T02:26:34;37.04;33.11;49.17;;
46393;Laerm;32099;53.588;10.176;2022-07-12T02:29:00;36.01;32.52;45.37;;
46393;Laerm;32099;53.588;10.176;2022-07-12T02:31:25;37.29;33.06;58.77;;
46393;Laerm;32099;53.588;10.176;2022-07-12T02:33:51;38.36;32.64;54.41;;
46393;Laerm;32099;53.588;10.176;2022-07-12T02:36:16;38.07;33.03;51.77;;
46393;Laerm;32099;53.588;10.176;2022-07-12T02:38:42;39.12;33.25;53.78;;
46393;Laerm;32099;53.588;10.176;2022-07-12T02:41:07;37.71;33.64;51.52;;
46393;Laerm;32099;53.588;10.176;2022-07-12T02:43:33;37.42;33.24;56.10;;
46393;Laerm;32099;53.588;10.176;2022-07-12T02:46:11;38.12;33.47;54.34;;
46393;Laerm;32099;53.588;10.176;2022-07-12T02:48:38;36.41;32.93;47.11;;
46393;Laerm;32099;53.588;10.176;2022-07-12T02:51:05;48.02;33.58;67.59;;
46393;Laerm;32099;53.588;10.176;2022-07-12T02:53:31;37.18;33.12;48.52;;
46393;Laerm;32099;53.588;10.176;2022-07-12T02:55:57;35.89;33.20;46.75;;
46393;Laerm;32099;53.588;10.176;2022-07-12T02:58:22;53.05;32.96;73.91;;
46393;Laerm;32099;53.588;10.176;2022-07-12T03:00:48;37.12;32.71;47.23;;
46393;Laerm;32099;53.588;10.176;2022-07-12T03:03:14;37.64;33.14;46.57;;
46393;Laerm;32099;53.588;10.176;2022-07-12T03:05:40;35.79;32.97;44.39;;
46393;Laerm;32099;53.588;10.176;2022-07-12T03:08:07;38.76;33.76;48.98;;
46393;Laerm;32099;53.588;10.176;2022-07-12T03:10:34;38.54;33.75;51.40;;
46393;Laerm;32099;53.588;10.176;2022-07-12T03:12:59;38.52;33.96;46.73;;
46393;Laerm;32099;53.588;10.176;2022-07-12T03:15:25;39.04;34.07;54.32;;
46393;Laerm;32099;53.588;10.176;2022-07-12T03:17:51;45.56;34.19;63.16;;
46393;Laerm;32099;53.588;10.176;2022-07-12T03:20:16;39.84;34.26;52.70;;
46393;Laerm;32099;53.588;10.176;2022-07-12T03:22:42;39.00;33.65;62.10;;
46393;Laerm;32099;53.588;10.176;2022-07-12T03:25:09;41.30;34.09;58.16;;
46393;Laerm;32099;53.588;10.176;2022-07-12T03:27:34;38.63;34.29;47.87;;
46393;Laerm;32099;53.588;10.176;2022-07-12T03:29:59;40.02;34.32;52.99;;
46393;Laerm;32099;53.588;10.176;2022-07-12T03:32:25;38.28;34.34;58.41;;
46393;Laerm;32099;53.588;10.176;2022-07-12T03:34:50;37.96;34.32;54.11;;
46393;Laerm;32099;53.588;10.176;2022-07-12T03:37:15;50.52;34.79;70.84;;
46393;Laerm;32099;53.588;10.176;2022-07-12T03:39:41;43.62;34.20;61.21;;
46393;Laerm;32099;53.588;10.176;2022-07-12T03:42:06;48.44;35.54;65.22;;
46393;Laerm;32099;53.588;10.176;2022-07-12T03:44:31;38.75;34.58;51.82;;
46393;Laerm;32099;53.588;10.176;2022-07-12T03:46:58;38.48;34.79;52.37;;
46393;Laerm;32099;53.588;10.176;2022-07-12T03:49:23;39.89;35.69;52.23;;
46393;Laerm;32099;53.588;10.176;2022-07-12T03:51:49;39.27;35.34;52.74;;
46393;Laerm;32099;53.588;10.176;2022-07-12T03:54:14;38.39;34.84;47.84;;
46393;Laerm;32099;53.588;10.176;2022-07-12T03:56:39;41.21;35.84;61.90;;
46393;Laerm;32099;53.588;10.176;2022-07-12T03:59:23;48.23;35.44;67.46;;
46393;Laerm;32099;53.588;10.176;2022-07-12T04:01:48;43.34;35.15;57.48;;
46393;Laerm;32099;53.588;10.176;2022-07-12T04:04:14;40.44;35.68;56.02;;
46393;Laerm;32099;53.588;10.176;2022-07-12T04:06:39;50.04;35.26;67.21;;
46393;Laerm;32099;53.588;10.176;2022-07-12T04:09:05;39.37;35.03;52.41;;
46393;Laerm;32099;53.588;10.176;2022-07-12T04:11:31;50.56;35.67;70.83;;
46393;Laerm;32099;53.588;10.176;2022-07-12T04:13:57;48.60;36.00;68.91;;
46393;Laerm;32099;53.588;10.176;2022-07-12T04:16:23;40.98;35.70;54.56;;
46393;Laerm;32099;53.588;10.176;2022-07-12T04:18:48;39.16;35.32;50.00;;
46393;Laerm;32099;53.588;10.176;2022-07-12T04:21:13;38.81;35.34;45.64;;
46393;Laerm;32099;53.588;10.176;2022-07-12T04:23:39;45.42;36.14;64.06;;
46393;Laerm;32099;53.588;10.176;2022-07-12T04:26:04;50.07;36.75;60.17;;
46393;Laerm;32099;53.588;10.176;2022-07-12T04:28:29;41.56;35.57;52.16;;
46393;Laerm;32099;53.588;10.176;2022-07-12T04:30:55;40.00;35.08;54.59;;
46393;Laerm;32099;53.588;10.176;2022-07-12T04:33:20;47.22;36.26;62.31;;
46393;Laerm;32099;53.588;10.176;2022-07-12T04:35:45;50.53;37.78;68.25;;
46393;Laerm;32099;53.588;10.176;2022-07-12T04:38:11;42.41;36.62;53.69;;
46393;Laerm;32099;53.588;10.176;2022-07-12T04:40:36;40.83;35.84;58.49;;
46393;Laerm;32099;53.588;10.176;2022-07-12T04:43:01;49.66;36.02;68.95;;
46393;Laerm;32099;53.588;10.176;2022-07-12T04:45:27;42.85;36.27;57.89;;
46393;Laerm;32099;53.588;10.176;2022-07-12T04:47:52;49.02;35.54;66.76;;
46393;Laerm;32099;53.588;10.176;2022-07-12T04:50:17;47.05;35.10;68.35;;
46393;Laerm;32099;53.588;10.176;2022-07-12T04:52:43;50.32;35.11;67.35;;
46393;Laerm;32099;53.588;10.176;2022-07-12T04:55:08;50.23;35.40;69.40;;
46393;Laerm;32099;53.588;10.176;2022-07-12T04:57:34;39.14;35.01;50.13;;
46393;Laerm;32099;53.588;10.176;2022-07-12T04:59:59;56.39;35.50;70.95;;
46393;Laerm;32099;53.588;10.176;2022-07-12T05:02:24;50.09;35.59;66.48;;
46393;Laerm;32099;53.588;10.176;2022-07-12T05:04:50;46.98;35.20;65.38;;
46393;Laerm;32099;53.588;10.176;2022-07-12T05:07:16;48.70;35.48;67.79;;
46393;Laerm;32099;53.588;10.176;2022-07-12T05:09:41;40.39;35.43;50.76;;
46393;Laerm;32099;53.588;10.176;2022-07-12T05:12:06;49.04;35.50;69.22;;
46393;Laerm;32099;53.588;10.176;2022-07-12T05:14:31;52.39;35.20;68.39;;
46393;Laerm;32099;53.588;10.176;2022-07-12T05:16:57;47.39;35.77;66.54;;
46393;Laerm;32099;53.588;10.176;2022-07-12T05:19:22;52.70;36.32;71.64;;
46393;Laerm;32099;53.588;10.176;2022-07-12T05:21:48;48.51;34.75;70.73;;
46393;Laerm;32099;53.588;10.176;2022-07-12T05:24:13;40.08;34.92;52.99;;
46393;Laerm;32099;53.588;10.176;2022-07-12T05:26:39;45.69;35.77;61.34;;
46393;Laerm;32099;53.588;10.176;2022-07-12T05:29:04;48.28;37.48;64.75;;
46393;Laerm;32099;53.588;10.176;2022-07-12T05:31:29;50.45;36.59;70.78;;
46393;Laerm;32099;53.588;10.176;2022-07-12T05:33:55;50.18;34.92;67.88;;
46393;Laerm;32099;53.588;10.176;2022-07-12T05:36:20;41.20;35.53;54.42;;
46393;Laerm;32099;53.588;10.176;2022-07-12T05:38:46;50.33;35.14;68.52;;
46393;Laerm;32099;53.588;10.176;2022-07-12T05:41:11;48.54;35.57;58.99;;
46393;Laerm;32099;53.588;10.176;2022-07-12T05:43:37;51.34;35.23;72.83;;
46393;Laerm;32099;53.588;10.176;2022-07-12T05:46:03;57.09;36.74;82.28;;
46393;Laerm;32099;53.588;10.176;2022-07-12T05:48:29;51.78;34.85;70.32;;
46393;Laerm;32099;53.588;10.176;2022-07-12T05:50:54;40.06;35.08;52.92;;
46393;Laerm;32099;53.588;10.176;2022-07-12T05:53:19;53.06;34.25;78.91;;
46393;Laerm;32099;53.588;10.176;2022-07-12T05:55:52;50.36;34.65;71.55;;
46393;Laerm;32099;53.588;10.176;2022-07-12T05:58:18;38.88;33.82;54.28;;
46393;Laerm;32099;53.588;10.176;2022-07-12T06:00:44;56.94;33.97;74.35;;
46393;Laerm;32099;53.588;10.176;2022-07-12T06:03:10;39.08;34.75;47.62;;
46393;Laerm;32099;53.588;10.176;2022-07-12T06:05:35;48.64;34.31;66.51;;
46393;Laerm;32099;53.588;10.176;2022-07-12T06:08:00;40.00;33.55;53.91;;
46393;Laerm;32099;53.588;10.176;2022-07-12T06:10:26;50.26;33.81;70.64;;
46393;Laerm;32099;53.588;10.176;2022-07-12T06:12:51;48.55;34.05;66.77;;
46393;Laerm;32099;53.588;10.176;2022-07-12T06:15:17;63.65;42.79;75.77;;
46393;Laerm;32099;53.588;10.176;2022-07-12T06:17:42;64.61;33.02;88.40;;
46393;Laerm;32099;53.588;10.176;2022-07-12T06:20:08;46.63;34.16;61.77;;
46393;Laerm;32099;53.588;10.176;2022-07-12T06:22:33;51.44;34.07;65.38;;
46393;Laerm;32099;53.588;10.176;2022-07-12T06:24:59;53.82;33.51;71.58;;
46393;Laerm;32099;53.588;10.176;2022-07-12T06:27:24;51.91;33.74;69.76;;
46393;Laerm;32099;53.588;10.176;2022-07-12T06:29:50;45.38;33.30;62.53;;
46393;Laerm;32099;53.588;10.176;2022-07-12T06:32:16;39.47;33.40;62.71;;
46393;Laerm;32099;53.588;10.176;2022-07-12T06:34:42;52.22;33.54;74.61;;
46393;Laerm;32099;53.588;10.176;2022-07-12T06:37:10;57.10;35.22;81.15;;
46393;Laerm;32099;53.588;10.176;2022-07-12T06:39:37;55.63;35.62;72.13;;
46393;Laerm;32099;53.588;10.176;2022-07-12T06:42:03;56.16;35.06;75.03;;
46393;Laerm;32099;53.588;10.176;2022-07-12T06:44:30;51.22;34.98;69.78;;
46393;Laerm;32099;53.588;10.176;2022-07-12T06:46:56;55.54;35.52;74.36;;
46393;Laerm;32099;53.588;10.176;2022-07-12T06:49:21;54.18;34.74;72.76;;
46393;Laerm;32099;53.588;10.176;2022-07-12T06:51:46;41.43;35.09;57.70;;
46393;Laerm;32099;53.588;10.176;2022-07-12T06:54:12;55.68;34.42;72.28;;
46393;Laerm;32099;53.588;10.176;2022-07-12T06:56:37;53.92;35.16;70.76;;
46393;Laerm;32099;53.588;10.176;2022-07-12T06:59:02;50.31;34.55;69.36;;
46393;Laerm;32099;53.588;10.176;2022-07-12T07:01:27;52.81;33.94;70.11;;
46393;Laerm;32099;53.588;10.176;2022-07-12T07:03:53;52.60;35.29;69.25;;
46393;Laerm;32099;53.588;10.176;2022-07-12T07:06:19;40.16;34.34;55.12;;
46393;Laerm;32099;53.588;10.176;2022-07-12T07:08:44;51.29;34.70;72.22;;
46393;Laerm;32099;53.588;10.176;2022-07-12T07:11:10;50.74;34.24;74.87;;
46393;Laerm;32099;53.588;10.176;2022-07-12T07:13:35;52.76;33.99;72.70;;
46393;Laerm;32099;53.588;10.176;2022-07-12T07:16:00;50.18;36.21;59.41;;
46393;Laerm;32099;53.588;10.176;2022-07-12T07:18:26;44.54;35.19;63.03;;
46393;Laerm;32099;53.588;10.176;2022-07-12T07:20:51;53.29;35.08;70.86;;
46393;Laerm;32099;53.588;10.176;2022-07-12T07:23:16;52.14;34.91;66.76;;
46393;Laerm;32099;53.588;10.176;2022-07-12T07:25:43;51.14;34.24;70.75;;
46393;Laerm;32099;53.588;10.176;2022-07-12T07:28:09;54.31;33.74;71.74;;
46393;Laerm;32099;53.588;10.176;2022-07-12T07:30:34;42.92;34.59;56.52;;
46393;Laerm;32099;53.588;10.176;2022-07-12T07:33:26;40.47;33.64;54.63;;
46393;Laerm;32099;53.588;10.176;2022-07-12T07:35:52;52.96;34.88;66.33;;
46393;Laerm;32099;53.588;10.176;2022-07-12T07:38:19;39.50;33.97;52.14;;
46393;Laerm;32099;53.588;10.176;2022-07-12T07:40:45;46.33;33.32;62.55;;
46393;Laerm;32099;53.588;10.176;2022-07-12T07:43:11;52.31;34.76;66.02;;
46393;Laerm;32099;53.588;10.176;2022-07-12T07:45:39;48.16;35.92;61.85;;
46393;Laerm;32099;53.588;10.176;2022-07-12T07:48:04;43.71;34.87;54.85;;
46393;Laerm;32099;53.588;10.176;2022-07-12T07:50:30;38.93;33.71;50.93;;
46393;Laerm;32099;53.588;10.176;2022-07-12T07:52:55;50.21;34.35;69.27;;
46393;Laerm;32099;53.588;10.176;2022-07-12T07:55:21;56.57;34.68;76.43;;
46393;Laerm;32099;53.588;10.176;2022-07-12T07:57:46;56.21;37.35;74.25;;
46393;Laerm;32099;53.588;10.176;2022-07-12T08:00:13;57.08;36.85;77.94;;
46393;Laerm;32099;53.588;10.176;2022-07-12T08:02:41;55.82;35.90;72.18;;
46393;Laerm;32099;53.588;10.176;2022-07-12T08:05:07;57.09;35.28;75.39;;
46393;Laerm;32099;53.588;10.176;2022-07-12T08:07:32;52.21;34.88;67.97;;
46393;Laerm;32099;53.588;10.176;2022-07-12T08:09:57;51.31;34.54;71.10;;
46393;Laerm;32099;53.588;10.176;2022-07-12T08:12:23;57.44;37.21;75.65;;
46393;Laerm;32099;53.588;10.176;2022-07-12T08:14:48;51.58;35.93;76.86;;
46393;Laerm;32099;53.588;10.176;2022-07-12T08:17:13;54.46;36.25;68.99;;
46393;Laerm;32099;53.588;10.176;2022-07-12T08:19:39;40.31;34.21;52.61;;
46393;Laerm;32099;53.588;10.176;2022-07-12T08:22:04;39.24;33.79;59.12;;
46393;Laerm;32099;53.588;10.176;2022-07-12T08:24:29;48.31;36.01;63.49;;
46393;Laerm;32099;53.588;10.176;2022-07-12T08:26:54;48.48;34.20;65.31;;
46393;Laerm;32099;53.588;10.176;2022-07-12T08:29:20;46.77;34.15;64.12;;
46393;Laerm;32099;53.588;10.176;2022-07-12T08:31:45;49.28;34.60;66.13;;
46393;Laerm;32099;53.588;10.176;2022-07-12T08:34:11;40.91;34.40;56.75;;
46393;Laerm;32099;53.588;10.176;2022-07-12T08:36:36;47.18;34.91;62.57;;
46393;Laerm;32099;53.588;10.176;2022-07-12T08:39:02;46.20;34.94;59.38;;
46393;Laerm;32099;53.588;10.176;2022-07-12T08:41:27;54.09;34.18;72.59;;
46393;Laerm;32099;53.588;10.176;2022-07-12T08:43:54;50.18;36.87;62.87;;
46393;Laerm;32099;53.588;10.176;2022-07-12T08:46:19;54.73;33.18;72.76;;
46393;Laerm;32099;53.588;10.176;2022-07-12T08:48:45;51.85;35.41;65.38;;
46393;Laerm;32099;53.588;10.176;2022-07-12T08:51:20;47.06;34.40;65.60;;
46393;Laerm;32099;53.588;10.176;2022-07-12T08:53:46;47.85;34.81;65.43;;
46393;Laerm;32099;53.588;10.176;2022-07-12T08:56:33;43.60;36.23;61.95;;
46393;Laerm;32099;53.588;10.176;2022-07-12T08:59:19;55.54;36.05;71.94;;
46393;Laerm;32099;53.588;10.176;2022-07-12T09:01:52;51.79;36.59;67.26;;
46393;Laerm;32099;53.588;10.176;2022-07-12T09:04:22;55.45;38.83;72.09;;
46393;Laerm;32099;53.588;10.176;2022-07-12T09:06:48;51.22;34.59;68.43;;
46393;Laerm;32099;53.588;10.176;2022-07-12T09:11:52;53.14;35.27;70.35;;
46393;Laerm;32099;53.588;10.176;2022-07-12T09:14:19;46.84;34.53;69.00;;
46393;Laerm;32099;53.588;10.176;2022-07-12T09:16:57;54.41;35.39;69.51;;
46393;Laerm;32099;53.588;10.176;2022-07-12T09:19:23;53.33;36.58;68.66;;
46393;Laerm;32099;53.588;10.176;2022-07-12T09:21:49;54.77;36.02;70.93;;
46393;Laerm;32099;53.588;10.176;2022-07-12T09:24:15;53.36;37.43;70.15;;
46393;Laerm;32099;53.588;10.176;2022-07-12T09:26:40;45.74;36.96;56.11;;
46393;Laerm;32099;53.588;10.176;2022-07-12T09:29:07;53.96;34.17;72.71;;
46393;Laerm;32099;53.588;10.176;2022-07-12T09:31:42;41.92;32.86;60.33;;
46393;Laerm;32099;53.588;10.176;2022-07-12T09:34:29;50.56;33.90;69.62;;
46393;Laerm;32099;53.588;10.176;2022-07-12T09:37:21;52.85;35.01;68.02;;
46393;Laerm;32099;53.588;10.176;2022-07-12T09:39:47;48.69;35.34;68.05;;
46393;Laerm;32099;53.588;10.176;2022-07-12T09:42:13;52.75;36.10;69.15;;
46393;Laerm;32099;53.588;10.176;2022-07-12T09:44:40;42.45;33.78;53.88;;
46393;Laerm;32099;53.588;10.176;2022-07-12T09:47:09;50.18;37.49;68.85;;
46393;Laerm;32099;53.588;10.176;2022-07-12T09:49:41;47.80;34.95;60.76;;
46393;Laerm;32099;53.588;10.176;2022-07-12T09:52:11;64.63;34.75;83.07;;
46393;Laerm;32099;53.588;10.176;2022-07-12T09:54:40;54.83;34.59;69.96;;
46393;Laerm;32099;53.588;10.176;2022-07-12T09:57:21;51.31;33.79;71.07;;
46393;Laerm;32099;53.588;10.176;2022-07-12T09:59:49;42.92;34.29;65.95;;
46393;Laerm;32099;53.588;10.176;2022-07-12T10:02:15;53.51;33.56;72.58;;
46393;Laerm;32099;53.588;10.176;2022-07-12T10:04:41;50.46;35.48;65.67;;
46393;Laerm;32099;53.588;10.176;2022-07-12T10:07:08;41.11;35.90;54.88;;
46393;Laerm;32099;53.588;10.176;2022-07-12T10:09:34;55.33;36.11;73.11;;
46393;Laerm;32099;53.588;10.176;2022-07-12T10:12:00;50.50;33.19;70.31;;
46393;Laerm;32099;53.588;10.176;2022-07-12T10:14:27;50.76;34.09;67.25;;
46393;Laerm;32099;53.588;10.176;2022-07-12T10:16:53;42.34;33.19;65.41;;
46393;Laerm;32099;53.588;10.176;2022-07-12T10:19:29;53.82;33.83;71.85;;
46393;Laerm;32099;53.588;10.176;2022-07-12T10:22:00;53.19;34.46;69.31;;
46393;Laerm;32099;53.588;10.176;2022-07-12T10:29:50;50.25;34.76;68.98;;
46393;Laerm;32099;53.588;10.176;2022-07-12T10:32:25;52.53;33.19;71.69;;
46393;Laerm;32099;53.588;10.176;2022-07-12T10:35:02;41.02;32.98;63.75;;
46393;Laerm;32099;53.588;10.176;2022-07-12T10:37:29;55.15;32.21;72.98;;
46393;Laerm;32099;53.588;10.176;2022-07-12T10:40:14;51.28;35.05;67.19;;
46393;Laerm;32099;53.588;10.176;2022-07-12T10:42:41;47.59;33.40;65.54;;
46393;Laerm;32099;53.588;10.176;2022-07-12T10:48:03;53.23;33.47;68.33;;
46393;Laerm;32099;53.588;10.176;2022-07-12T10:58:36;50.46;35.67;77.66;;
46393;Laerm;32099;53.588;10.176;2022-07-12T11:01:03;48.94;34.99;80.18;;
46393;Laerm;32099;53.588;10.176;2022-07-12T11:03:30;52.61;33.68;70.09;;
46393;Laerm;32099;53.588;10.176;2022-07-12T11:06:03;41.86;32.23;65.77;;
46393;Laerm;32099;53.588;10.176;2022-07-12T11:08:29;48.40;34.03;66.95;;
46393;Laerm;32099;53.588;10.176;2022-07-12T11:10:58;50.50;33.04;73.09;;
46393;Laerm;32099;53.588;10.176;2022-07-12T11:13:24;55.36;32.31;78.68;;
46393;Laerm;32099;53.588;10.176;2022-07-12T11:15:57;52.31;34.11;70.52;;
46393;Laerm;32099;53.588;10.176;2022-07-12T11:18:30;39.66;32.58;54.58;;
46393;Laerm;32099;53.588;10.176;2022-07-12T11:20:59;45.77;31.48;63.68;;
46393;Laerm;32099;53.588;10.176;2022-07-12T11:23:25;40.47;32.74;57.67;;
46393;Laerm;32099;53.588;10.176;2022-07-12T11:25:58;50.19;37.24;69.30;;
46393;Laerm;32099;53.588;10.176;2022-07-12T11:28:24;45.12;37.97;57.56;;
46393;Laerm;32099;53.588;10.176;2022-07-12T11:30:53;47.82;35.66;64.99;;
46393;Laerm;32099;53.588;10.176;2022-07-12T11:33:24;50.46;35.52;68.42;;
46393;Laerm;32099;53.588;10.176;2022-07-12T11:35:51;56.70;39.05;76.86;;
46393;Laerm;32099;53.588;10.176;2022-07-12T11:38:23;50.24;40.64;66.25;;
46393;Laerm;32099;53.588;10.176;2022-07-12T11:41:03;42.57;36.19;59.00;;
46393;Laerm;32099;53.588;10.176;2022-07-12T11:43:29;53.18;34.70;69.64;;
46393;Laerm;32099;53.588;10.176;2022-07-12T11:45:55;51.14;35.85;71.48;;
46393;Laerm;32099;53.588;10.176;2022-07-12T11:48:22;41.87;34.20;59.29;;
46393;Laerm;32099;53.588;10.176;2022-07-12T11:50:50;52.90;37.02;68.68;;
46393;Laerm;32099;53.588;10.176;2022-07-12T11:53:24;52.53;33.45;78.08;;
46393;Laerm;32099;53.588;10.176;2022-07-12T11:55:52;48.51;33.93;67.43;;
46393;Laerm;32099;53.588;10.176;2022-07-12T11:58:19;55.70;34.49;72.94;;
46393;Laerm;32099;53.588;10.176;2022-07-12T12:00:46;50.08;33.62;68.92;;
46393;Laerm;32099;53.588;10.176;2022-07-12T12:03:12;53.79;33.67;71.28;;
46393;Laerm;32099;53.588;10.176;2022-07-12T12:05:38;55.86;34.00;74.29;;
46393;Laerm;32099;53.588;10.176;2022-07-12T12:08:05;40.25;34.66;53.21;;
46393;Laerm;32099;53.588;10.176;2022-07-12T12:10:30;52.19;36.11;71.74;;
46393;Laerm;32099;53.588;10.176;2022-07-12T12:12:58;46.07;37.06;65.02;;
46393;Laerm;32099;53.588;10.176;2022-07-12T12:15:25;48.68;36.33;64.67;;
46393;Laerm;32099;53.588;10.176;2022-07-12T12:17:58;47.87;33.99;66.34;;
46393;Laerm;32099;53.588;10.176;2022-07-12T12:20:26;53.17;35.47;69.26;;
46393;Laerm;32099;53.588;10.176;2022-07-12T12:22:53;50.48;32.87;65.65;;
46393;Laerm;32099;53.588;10.176;2022-07-12T12:25:20;39.82;32.57;55.09;;
46393;Laerm;32099;53.588;10.176;2022-07-12T12:28:04;54.20;32.81;73.77;;
46393;Laerm;32099;53.588;10.176;2022-07-12T12:30:31;49.29;33.20;68.40;;
46393;Laerm;32099;53.588;10.176;2022-07-12T12:33:01;47.03;31.73;62.05;;
46393;Laerm;32099;53.588;10.176;2022-07-12T12:35:31;49.93;31.71;70.37;;
46393;Laerm;32099;53.588;10.176;2022-07-12T12:38:01;52.03;33.13;69.52;;
46393;Laerm;32099;53.588;10.176;2022-07-12T12:40:29;51.78;33.38;69.69;;
46393;Laerm;32099;53.588;10.176;2022-07-12T12:43:12;51.61;32.75;68.59;;
46393;Laerm;32099;53.588;10.176;2022-07-12T12:45:54;51.05;34.39;63.43;;
46393;Laerm;32099;53.588;10.176;2022-07-12T12:50:47;39.42;32.76;63.48;;
46393;Laerm;32099;53.588;10.176;2022-07-12T12:55:43;48.49;33.35;66.86;;
46393;Laerm;32099;53.588;10.176;2022-07-12T12:58:10;47.08;33.07;64.72;;
46393;Laerm;32099;53.588;10.176;2022-07-12T13:00:38;46.42;32.03;64.35;;
46393;Laerm;32099;53.588;10.176;2022-07-12T13:03:08;49.22;32.75;69.55;;
46393;Laerm;32099;53.588;10.176;2022-07-12T13:05:34;55.48;34.17;73.91;;
46393;Laerm;32099;53.588;10.176;2022-07-12T13:08:01;46.95;34.20;66.23;;
46393;Laerm;32099;53.588;10.176;2022-07-12T13:10:26;46.31;33.44;67.74;;
46393;Laerm;32099;53.588;10.176;2022-07-12T13:12:52;51.54;34.43;67.89;;
46393;Laerm;32099;53.588;10.176;2022-07-12T13:15:18;46.59;32.71;65.70;;
46393;Laerm;32099;53.588;10.176;2022-07-12T13:17:44;50.71;33.91;63.60;;
46393;Laerm;32099;53.588;10.176;2022-07-12T13:20:09;50.91;32.23;70.38;;
46393;Laerm;32099;53.588;10.176;2022-07-12T13:22:35;51.50;32.60;65.53;;
46393;Laerm;32099;53.588;10.176;2022-07-12T13:25:01;40.31;32.09;63.82;;
46393;Laerm;32099;53.588;10.176;2022-07-12T13:27:27;39.50;32.73;53.61;;
46393;Laerm;32099;53.588;10.176;2022-07-12T13:29:53;51.60;33.25;71.95;;
46393;Laerm;32099;53.588;10.176;2022-07-12T13:32:18;48.71;33.36;66.41;;
46393;Laerm;32099;53.588;10.176;2022-07-12T13:34:46;51.17;33.71;65.91;;
46393;Laerm;32099;53.588;10.176;2022-07-12T13:37:12;41.13;34.31;51.53;;
46393;Laerm;32099;53.588;10.176;2022-07-12T13:39:37;50.70;33.35;67.63;;
46393;Laerm;32099;53.588;10.176;2022-07-12T13:42:21;47.60;32.57;65.15;;
46393;Laerm;32099;53.588;10.176;2022-07-12T13:44:46;45.00;32.63;60.83;;
46393;Laerm;32099;53.588;10.176;2022-07-12T13:47:12;45.28;33.04;61.63;;
46393;Laerm;32099;53.588;10.176;2022-07-12T13:49:37;39.47;33.31;51.23;;
46393;Laerm;32099;53.588;10.176;2022-07-12T13:52:02;53.55;32.55;71.83;;
46393;Laerm;32099;53.588;10.176;2022-07-12T13:54:28;39.77;33.09;51.90;;